sensor_id;sensor_type;location;lat;lon;timestamp;temperature;humidity
18043;DHT22;9146;48.074;11.968;2022-09-09T00:00:20;12.40;99.90
18043;DHT22;9146;48.074;11.968;2022-09-09T00:02:55;12.40;99.90
18043;DHT22;9146;48.074;11.968;2022-09-09T00:05:30;12.40;99.90
18043;DHT22;9146;48.074;11.968;2022-09-09T00:08:01;12.30;99.90
18043;DHT22;9146;48.074;11.968;2022-09-09T00:10:32;12.30;99.90
18043;DHT22;9146;48.074;11.968;2022-09-09T00:13:06;12.30;99.90
18043;DHT22;9146;48.074;11.968;2022-09-09T00:15:40;12.30;99.90
18043;DHT22;9146;48.074;11.968;2022-09-09T00:18:17;12.30;99.90
18043;DHT22;9146;48.074;11.968;2022-09-09T00:20:52;12.20;99.90
18043;DHT22;9146;48.074;11.968;2022-09-09T00:23:25;12.20;99.90
18043;DHT22;9146;48.074;11.968;2022-09-09T00:25:59;12.20;99.90
18043;DHT22;9146;48.074;11.968;2022-09-09T00:28:28;12.20;99.90
18043;DHT22;9146;48.074;11.968;2022-09-09T00:31:00;12.20;99.90
18043;DHT22;9146;48.074;11.968;2022-09-09T00:33:30;12.20;99.90
18043;DHT22;9146;48.074;11.968;2022-09-09T00:35:58;12.30;99.90
18043;DHT22;9146;48.074;11.968;2022-09-09T00:38:31;12.30;99.90
18043;DHT22;9146;48.074;11.968;2022-09-09T00:41:03;12.30;99.90
18043;DHT22;9146;48.074;11.968;2022-09-09T00:43:36;12.40;99.90
18043;DHT22;9146;48.074;11.968;2022-09-09T00:46:26;12.40;99.90
18043;DHT22;9146;48.074;11.968;2022-09-09T00:49:04;12.50;99.90
18043;DHT22;9146;48.074;11.968;2022-09-09T00:51:44;12.50;99.90
18043;DHT22;9146;48.074;11.968;2022-09-09T00:54:25;12.60;99.90
18043;DHT22;9146;48.074;11.968;2022-09-09T00:57:04;12.60;99.90
18043;DHT22;9146;48.074;11.968;2022-09-09T00:59:39;12.60;99.90
18043;DHT22;9146;48.074;11.968;2022-09-09T01:02:15;12.60;99.90
18043;DHT22;9146;48.074;11.968;2022-09-09T01:04:45;12.70;99.90
18043;DHT22;9146;48.074;11.968;2022-09-09T01:07:16;12.70;99.90
18043;DHT22;9146;48.074;11.968;2022-09-09T01:09:52;12.80;99.90
18043;DHT22;9146;48.074;11.968;2022-09-09T01:12:25;12.80;99.90
18043;DHT22;9146;48.074;11.968;2022-09-09T01:15:01;12.90;99.90
18043;DHT22;9146;48.074;11.968;2022-09-09T01:17:31;13.00;99.90
18043;DHT22;9146;48.074;11.968;2022-09-09T01:20:04;13.10;99.90
18043;DHT22;9146;48.074;11.968;2022-09-09T01:22:35;13.10;99.90
18043;DHT22;9146;48.074;11.968;2022-09-09T01:25:27;13.20;99.90
18043;DHT22;9146;48.074;11.968;2022-09-09T01:27:58;13.20;99.90
18043;DHT22;9146;48.074;11.968;2022-09-09T01:30:27;13.30;99.90
18043;DHT22;9146;48.074;11.968;2022-09-09T01:32:55;13.30;99.90
18043;DHT22;9146;48.074;11.968;2022-09-09T01:35:32;13.40;99.90
18043;DHT22;9146;48.074;11.968;2022-09-09T01:38:01;13.40;99.90
18043;DHT22;9146;48.074;11.968;2022-09-09T01:40:28;13.40;99.90
18043;DHT22;9146;48.074;11.968;2022-09-09T01:42:57;13.50;99.90
18043;DHT22;9146;48.074;11.968;2022-09-09T01:45:25;13.50;99.90
18043;DHT22;9146;48.074;11.968;2022-09-09T01:47:52;13.50;99.90
18043;DHT22;9146;48.074;11.968;2022-09-09T01:50:20;13.50;99.90
18043;DHT22;9146;48.074;11.968;2022-09-09T01:52:50;13.50;99.90
18043;DHT22;9146;48.074;11.968;2022-09-09T01:55:23;13.50;99.90
18043;DHT22;9146;48.074;11.968;2022-09-09T01:58:01;13.60;99.90
18043;DHT22;9146;48.074;11.968;2022-09-09T02:00:30;13.60;99.90
18043;DHT22;9146;48.074;11.968;2022-09-09T02:03:03;13.60;99.90
18043;DHT22;9146;48.074;11.968;2022-09-09T02:05:36;13.60;99.90
18043;DHT22;9146;48.074;11.968;2022-09-09T02:08:07;13.60;99.90
18043;DHT22;9146;48.074;11.968;2022-09-09T02:10:42;13.60;99.90
18043;DHT22;9146;48.074;11.968;2022-09-09T02:13:14;13.60;99.90
18043;DHT22;9146;48.074;11.968;2022-09-09T02:15:45;13.50;99.90
18043;DHT22;9146;48.074;11.968;2022-09-09T02:18:15;13.50;99.90
18043;DHT22;9146;48.074;11.968;2022-09-09T02:20:45;13.50;99.90
18043;DHT22;9146;48.074;11.968;2022-09-09T02:23:13;13.50;99.90
18043;DHT22;9146;48.074;11.968;2022-09-09T02:25:41;13.50;99.90
18043;DHT22;9146;48.074;11.968;2022-09-09T02:28:12;13.50;99.90
18043;DHT22;9146;48.074;11.968;2022-09-09T02:30:40;13.50;99.90
18043;DHT22;9146;48.074;11.968;2022-09-09T02:33:08;13.50;99.90
18043;DHT22;9146;48.074;11.968;2022-09-09T02:35:38;13.50;99.90
18043;DHT22;9146;48.074;11.968;2022-09-09T02:38:09;13.40;99.90
18043;DHT22;9146;48.074;11.968;2022-09-09T02:40:37;13.40;99.90
18043;DHT22;9146;48.074;11.968;2022-09-09T02:43:04;13.40;99.90
18043;DHT22;9146;48.074;11.968;2022-09-09T02:45:38;13.40;99.90
18043;DHT22;9146;48.074;11.968;2022-09-09T02:48:14;13.40;99.90
18043;DHT22;9146;48.074;11.968;2022-09-09T02:50:52;13.30;99.90
18043;DHT22;9146;48.074;11.968;2022-09-09T02:53:23;13.30;99.90
18043;DHT22;9146;48.074;11.968;2022-09-09T02:55:53;13.30;99.90
18043;DHT22;9146;48.074;11.968;2022-09-09T02:58:21;13.30;99.90
18043;DHT22;9146;48.074;11.968;2022-09-09T03:00:51;13.20;99.90
18043;DHT22;9146;48.074;11.968;2022-09-09T03:03:19;13.20;99.90
18043;DHT22;9146;48.074;11.968;2022-09-09T03:05:47;13.20;99.90
18043;DHT22;9146;48.074;11.968;2022-09-09T03:08:15;13.20;99.90
18043;DHT22;9146;48.074;11.968;2022-09-09T03:10:42;13.20;99.90
18043;DHT22;9146;48.074;11.968;2022-09-09T03:13:09;13.20;99.90
18043;DHT22;9146;48.074;11.968;2022-09-09T03:15:36;13.20;99.90
18043;DHT22;9146;48.074;11.968;2022-09-09T03:18:05;13.30;99.90
18043;DHT22;9146;48.074;11.968;2022-09-09T03:20:31;13.30;99.90
18043;DHT22;9146;48.074;11.968;2022-09-09T03:23:00;13.30;99.90
18043;DHT22;9146;48.074;11.968;2022-09-09T03:25:28;13.20;99.90
18043;DHT22;9146;48.074;11.968;2022-09-09T03:27:55;13.20;99.90
18043;DHT22;9146;48.074;11.968;2022-09-09T03:30:23;13.20;99.90
18043;DHT22;9146;48.074;11.968;2022-09-09T03:32:51;13.20;99.90
18043;DHT22;9146;48.074;11.968;2022-09-09T03:35:19;13.20;99.90
18043;DHT22;9146;48.074;11.968;2022-09-09T03:37:46;13.10;99.90
18043;DHT22;9146;48.074;11.968;2022-09-09T03:40:14;13.10;99.90
18043;DHT22;9146;48.074;11.968;2022-09-09T03:42:41;13.10;99.90
18043;DHT22;9146;48.074;11.968;2022-09-09T03:45:09;13.10;99.90
18043;DHT22;9146;48.074;11.968;2022-09-09T03:47:37;13.10;99.90
18043;DHT22;9146;48.074;11.968;2022-09-09T03:50:04;13.10;99.90
18043;DHT22;9146;48.074;11.968;2022-09-09T03:52:36;13.10;99.90
18043;DHT22;9146;48.074;11.968;2022-09-09T03:55:04;13.00;99.90
18043;DHT22;9146;48.074;11.968;2022-09-09T03:57:31;12.90;99.90
18043;DHT22;9146;48.074;11.968;2022-09-09T04:00:01;12.90;99.90
18043;DHT22;9146;48.074;11.968;2022-09-09T04:02:28;12.80;99.90
18043;DHT22;9146;48.074;11.968;2022-09-09T04:04:55;12.80;99.90
18043;DHT22;9146;48.074;11.968;2022-09-09T04:07:22;12.80;99.90
18043;DHT22;9146;48.074;11.968;2022-09-09T04:09:50;12.80;99.90
18043;DHT22;9146;48.074;11.968;2022-09-09T04:12:17;12.70;99.90
18043;DHT22;9146;48.074;11.968;2022-09-09T04:14:44;12.70;99.90
18043;DHT22;9146;48.074;11.968;2022-09-09T04:17:10;12.70;99.90
18043;DHT22;9146;48.074;11.968;2022-09-09T04:19:37;12.70;99.90
18043;DHT22;9146;48.074;11.968;2022-09-09T04:22:04;12.60;99.90
18043;DHT22;9146;48.074;11.968;2022-09-09T04:24:31;12.60;99.90
18043;DHT22;9146;48.074;11.968;2022-09-09T04:26:59;12.60;99.90
18043;DHT22;9146;48.074;11.968;2022-09-09T04:29:26;12.60;99.90
18043;DHT22;9146;48.074;11.968;2022-09-09T04:31:53;12.60;99.90
18043;DHT22;9146;48.074;11.968;2022-09-09T04:34:20;12.70;99.90
18043;DHT22;9146;48.074;11.968;2022-09-09T04:36:47;12.70;99.90
18043;DHT22;9146;48.074;11.968;2022-09-09T04:39:13;12.70;99.90
18043;DHT22;9146;48.074;11.968;2022-09-09T04:41:40;12.70;99.90
18043;DHT22;9146;48.074;11.968;2022-09-09T04:44:09;12.70;99.90
18043;DHT22;9146;48.074;11.968;2022-09-09T04:46:35;12.70;99.90
18043;DHT22;9146;48.074;11.968;2022-09-09T04:49:02;12.70;99.90
18043;DHT22;9146;48.074;11.968;2022-09-09T04:51:29;12.70;99.90
18043;DHT22;9146;48.074;11.968;2022-09-09T04:53:57;12.70;99.90
18043;DHT22;9146;48.074;11.968;2022-09-09T04:56:23;12.70;99.90
18043;DHT22;9146;48.074;11.968;2022-09-09T04:58:52;12.70;99.90
18043;DHT22;9146;48.074;11.968;2022-09-09T05:01:22;12.70;99.90
18043;DHT22;9146;48.074;11.968;2022-09-09T05:03:50;12.70;99.90
18043;DHT22;9146;48.074;11.968;2022-09-09T05:06:19;12.70;99.90
18043;DHT22;9146;48.074;11.968;2022-09-09T05:08:46;12.80;99.90
18043;DHT22;9146;48.074;11.968;2022-09-09T05:11:15;12.80;99.90
18043;DHT22;9146;48.074;11.968;2022-09-09T05:13:42;12.80;99.90
18043;DHT22;9146;48.074;11.968;2022-09-09T05:16:09;12.80;99.90
18043;DHT22;9146;48.074;11.968;2022-09-09T05:18:38;12.90;99.90
18043;DHT22;9146;48.074;11.968;2022-09-09T05:21:05;12.90;99.90
18043;DHT22;9146;48.074;11.968;2022-09-09T05:23:33;12.90;99.90
18043;DHT22;9146;48.074;11.968;2022-09-09T05:26:01;12.90;99.90
18043;DHT22;9146;48.074;11.968;2022-09-09T05:28:28;13.00;99.90
18043;DHT22;9146;48.074;11.968;2022-09-09T05:30:59;13.00;99.90
18043;DHT22;9146;48.074;11.968;2022-09-09T05:33:29;13.10;99.90
18043;DHT22;9146;48.074;11.968;2022-09-09T05:35:58;13.20;99.90
18043;DHT22;9146;48.074;11.968;2022-09-09T05:38:27;13.30;99.90
18043;DHT22;9146;48.074;11.968;2022-09-09T05:40:54;13.40;99.90
18043;DHT22;9146;48.074;11.968;2022-09-09T05:43:22;13.60;99.90
18043;DHT22;9146;48.074;11.968;2022-09-09T05:45:59;13.80;99.90
18043;DHT22;9146;48.074;11.968;2022-09-09T05:48:28;14.00;99.90
18043;DHT22;9146;48.074;11.968;2022-09-09T05:50:58;14.20;99.90
18043;DHT22;9146;48.074;11.968;2022-09-09T05:53:25;14.30;99.90
18043;DHT22;9146;48.074;11.968;2022-09-09T05:55:59;14.30;99.90
18043;DHT22;9146;48.074;11.968;2022-09-09T05:58:27;14.30;99.90
18043;DHT22;9146;48.074;11.968;2022-09-09T06:01:00;14.40;99.90
18043;DHT22;9146;48.074;11.968;2022-09-09T06:03:28;14.40;99.90
18043;DHT22;9146;48.074;11.968;2022-09-09T06:06:00;14.40;99.90
18043;DHT22;9146;48.074;11.968;2022-09-09T06:08:27;14.50;99.90
18043;DHT22;9146;48.074;11.968;2022-09-09T06:11:01;14.50;99.90
18043;DHT22;9146;48.074;11.968;2022-09-09T06:13:29;14.50;99.90
18043;DHT22;9146;48.074;11.968;2022-09-09T06:15:56;14.50;99.90
18043;DHT22;9146;48.074;11.968;2022-09-09T06:18:24;14.60;99.90
18043;DHT22;9146;48.074;11.968;2022-09-09T06:21:00;14.50;99.90
18043;DHT22;9146;48.074;11.968;2022-09-09T06:23:29;14.50;99.90
18043;DHT22;9146;48.074;11.968;2022-09-09T06:26:06;14.50;99.90
18043;DHT22;9146;48.074;11.968;2022-09-09T06:28:33;14.50;99.90
18043;DHT22;9146;48.074;11.968;2022-09-09T06:31:02;14.50;99.90
18043;DHT22;9146;48.074;11.968;2022-09-09T06:33:32;14.50;99.90
18043;DHT22;9146;48.074;11.968;2022-09-09T06:36:03;14.40;99.90
18043;DHT22;9146;48.074;11.968;2022-09-09T06:38:30;14.40;99.90
18043;DHT22;9146;48.074;11.968;2022-09-09T06:40:59;14.40;99.90
18043;DHT22;9146;48.074;11.968;2022-09-09T06:43:27;14.40;99.90
18043;DHT22;9146;48.074;11.968;2022-09-09T06:45:56;14.40;99.90
18043;DHT22;9146;48.074;11.968;2022-09-09T06:48:23;14.40;99.90
18043;DHT22;9146;48.074;11.968;2022-09-09T06:50:51;14.50;99.90
18043;DHT22;9146;48.074;11.968;2022-09-09T06:53:27;14.50;99.90
18043;DHT22;9146;48.074;11.968;2022-09-09T06:55:54;14.50;99.90
18043;DHT22;9146;48.074;11.968;2022-09-09T06:58:21;14.60;99.90
18043;DHT22;9146;48.074;11.968;2022-09-09T07:00:48;14.70;99.90
18043;DHT22;9146;48.074;11.968;2022-09-09T07:03:16;14.70;99.90
18043;DHT22;9146;48.074;11.968;2022-09-09T07:05:42;14.70;99.90
18043;DHT22;9146;48.074;11.968;2022-09-09T07:08:10;14.80;99.90
18043;DHT22;9146;48.074;11.968;2022-09-09T07:10:39;14.80;99.90
18043;DHT22;9146;48.074;11.968;2022-09-09T07:13:06;14.80;99.90
18043;DHT22;9146;48.074;11.968;2022-09-09T07:15:33;14.90;99.90
18043;DHT22;9146;48.074;11.968;2022-09-09T07:18:01;14.90;99.90
18043;DHT22;9146;48.074;11.968;2022-09-09T07:20:28;15.00;99.90
18043;DHT22;9146;48.074;11.968;2022-09-09T07:22:55;15.00;99.90
18043;DHT22;9146;48.074;11.968;2022-09-09T07:25:24;15.00;99.90
18043;DHT22;9146;48.074;11.968;2022-09-09T07:27:53;15.00;99.90
18043;DHT22;9146;48.074;11.968;2022-09-09T07:30:20;15.10;99.90
18043;DHT22;9146;48.074;11.968;2022-09-09T07:32:47;15.00;99.90
18043;DHT22;9146;48.074;11.968;2022-09-09T07:35:14;15.00;99.90
18043;DHT22;9146;48.074;11.968;2022-09-09T07:37:41;15.10;99.90
18043;DHT22;9146;48.074;11.968;2022-09-09T07:40:08;15.10;99.90
18043;DHT22;9146;48.074;11.968;2022-09-09T07:42:35;15.20;99.90
18043;DHT22;9146;48.074;11.968;2022-09-09T07:45:05;15.30;99.90
18043;DHT22;9146;48.074;11.968;2022-09-09T07:47:32;15.30;99.90
18043;DHT22;9146;48.074;11.968;2022-09-09T07:49:59;15.40;99.90
18043;DHT22;9146;48.074;11.968;2022-09-09T07:52:25;15.40;99.90
18043;DHT22;9146;48.074;11.968;2022-09-09T07:54:53;15.50;99.90
18043;DHT22;9146;48.074;11.968;2022-09-09T07:57:21;15.50;99.90
18043;DHT22;9146;48.074;11.968;2022-09-09T07:59:48;15.60;99.90
18043;DHT22;9146;48.074;11.968;2022-09-09T08:02:17;15.60;99.90
18043;DHT22;9146;48.074;11.968;2022-09-09T08:04:44;15.70;99.90
18043;DHT22;9146;48.074;11.968;2022-09-09T08:07:12;15.70;99.90
18043;DHT22;9146;48.074;11.968;2022-09-09T08:09:39;15.70;99.90
18043;DHT22;9146;48.074;11.968;2022-09-09T08:12:07;15.60;99.90
18043;DHT22;9146;48.074;11.968;2022-09-09T08:14:34;15.50;99.90
18043;DHT22;9146;48.074;11.968;2022-09-09T08:17:02;15.40;99.90
18043;DHT22;9146;48.074;11.968;2022-09-09T08:19:30;15.20;99.90
18043;DHT22;9146;48.074;11.968;2022-09-09T08:22:01;15.00;99.90
18043;DHT22;9146;48.074;11.968;2022-09-09T08:24:28;14.80;99.90
18043;DHT22;9146;48.074;11.968;2022-09-09T08:26:55;14.70;99.90
18043;DHT22;9146;48.074;11.968;2022-09-09T08:29:23;14.60;99.90
18043;DHT22;9146;48.074;11.968;2022-09-09T08:31:51;14.50;99.90
18043;DHT22;9146;48.074;11.968;2022-09-09T08:34:20;14.40;99.90
18043;DHT22;9146;48.074;11.968;2022-09-09T08:36:49;14.40;99.90
18043;DHT22;9146;48.074;11.968;2022-09-09T08:39:18;14.40;99.90
18043;DHT22;9146;48.074;11.968;2022-09-09T08:44:59;14.50;99.90
18043;DHT22;9146;48.074;11.968;2022-09-09T08:47:34;14.50;99.90
18043;DHT22;9146;48.074;11.968;2022-09-09T08:50:21;14.50;99.90
18043;DHT22;9146;48.074;11.968;2022-09-09T08:52:55;14.60;99.90
18043;DHT22;9146;48.074;11.968;2022-09-09T08:55:35;14.60;99.90
18043;DHT22;9146;48.074;11.968;2022-09-09T08:58:10;14.60;99.90
18043;DHT22;9146;48.074;11.968;2022-09-09T09:00:44;14.70;99.90
18043;DHT22;9146;48.074;11.968;2022-09-09T09:03:18;14.70;99.90
18043;DHT22;9146;48.074;11.968;2022-09-09T09:05:59;14.70;99.90
18043;DHT22;9146;48.074;11.968;2022-09-09T09:08:36;14.70;99.90
18043;DHT22;9146;48.074;11.968;2022-09-09T09:11:06;14.70;99.90
18043;DHT22;9146;48.074;11.968;2022-09-09T09:13:39;14.70;99.90
18043;DHT22;9146;48.074;11.968;2022-09-09T09:16:17;14.70;99.90
18043;DHT22;9146;48.074;11.968;2022-09-09T09:18:45;14.70;99.90
18043;DHT22;9146;48.074;11.968;2022-09-09T09:21:15;14.70;99.90
18043;DHT22;9146;48.074;11.968;2022-09-09T09:23:53;14.70;99.90
18043;DHT22;9146;48.074;11.968;2022-09-09T09:26:23;14.70;99.90
18043;DHT22;9146;48.074;11.968;2022-09-09T09:28:54;14.80;99.90
18043;DHT22;9146;48.074;11.968;2022-09-09T09:31:22;14.80;99.90
18043;DHT22;9146;48.074;11.968;2022-09-09T09:33:53;14.80;99.90
18043;DHT22;9146;48.074;11.968;2022-09-09T09:36:21;14.80;99.90
18043;DHT22;9146;48.074;11.968;2022-09-09T09:38:55;14.80;99.90
18043;DHT22;9146;48.074;11.968;2022-09-09T09:41:31;14.80;99.90
18043;DHT22;9146;48.074;11.968;2022-09-09T09:43:58;14.80;99.90
18043;DHT22;9146;48.074;11.968;2022-09-09T09:46:27;14.80;99.90
18043;DHT22;9146;48.074;11.968;2022-09-09T09:48:58;14.80;99.90
18043;DHT22;9146;48.074;11.968;2022-09-09T09:51:26;14.80;99.90
18043;DHT22;9146;48.074;11.968;2022-09-09T09:54:07;14.80;99.90
18043;DHT22;9146;48.074;11.968;2022-09-09T09:56:35;14.80;99.90
18043;DHT22;9146;48.074;11.968;2022-09-09T09:59:03;14.80;99.90
18043;DHT22;9146;48.074;11.968;2022-09-09T10:01:31;14.80;99.90
18043;DHT22;9146;48.074;11.968;2022-09-09T10:04:01;14.90;99.90
18043;DHT22;9146;48.074;11.968;2022-09-09T10:06:32;14.90;99.90
18043;DHT22;9146;48.074;11.968;2022-09-09T10:09:02;15.00;99.90
18043;DHT22;9146;48.074;11.968;2022-09-09T10:11:43;15.00;99.90
18043;DHT22;9146;48.074;11.968;2022-09-09T10:14:18;15.10;99.90
18043;DHT22;9146;48.074;11.968;2022-09-09T10:16:58;15.10;99.90
18043;DHT22;9146;48.074;11.968;2022-09-09T10:19:30;15.20;99.90
18043;DHT22;9146;48.074;11.968;2022-09-09T10:22:05;15.30;99.90
18043;DHT22;9146;48.074;11.968;2022-09-09T10:25:01;15.40;99.90
18043;DHT22;9146;48.074;11.968;2022-09-09T10:27:38;15.50;99.90
18043;DHT22;9146;48.074;11.968;2022-09-09T10:30:14;15.60;99.90
18043;DHT22;9146;48.074;11.968;2022-09-09T10:32:48;15.70;99.90
18043;DHT22;9146;48.074;11.968;2022-09-09T10:35:37;15.80;99.90
18043;DHT22;9146;48.074;11.968;2022-09-09T10:38:16;16.00;99.90
18043;DHT22;9146;48.074;11.968;2022-09-09T10:41:08;16.20;99.90
18043;DHT22;9146;48.074;11.968;2022-09-09T10:43:50;16.50;99.90
18043;DHT22;9146;48.074;11.968;2022-09-09T10:46:29;16.60;99.90
18043;DHT22;9146;48.074;11.968;2022-09-09T10:49:10;16.60;99.90
18043;DHT22;9146;48.074;11.968;2022-09-09T10:51:47;16.70;99.90
18043;DHT22;9146;48.074;11.968;2022-09-09T10:54:42;16.80;99.90
18043;DHT22;9146;48.074;11.968;2022-09-09T10:57:16;16.80;99.90
18043;DHT22;9146;48.074;11.968;2022-09-09T10:59:46;16.80;99.90
18043;DHT22;9146;48.074;11.968;2022-09-09T11:02:17;16.70;99.90
18043;DHT22;9146;48.074;11.968;2022-09-09T11:04:50;16.70;99.90
18043;DHT22;9146;48.074;11.968;2022-09-09T11:07:25;16.60;99.90
18043;DHT22;9146;48.074;11.968;2022-09-09T11:09:58;16.50;99.90
18043;DHT22;9146;48.074;11.968;2022-09-09T11:12:28;16.30;99.90
18043;DHT22;9146;48.074;11.968;2022-09-09T11:15:01;16.20;99.90
18043;DHT22;9146;48.074;11.968;2022-09-09T11:17:36;16.10;99.90
18043;DHT22;9146;48.074;11.968;2022-09-09T11:20:11;16.00;99.90
18043;DHT22;9146;48.074;11.968;2022-09-09T11:22:44;15.90;99.90
18043;DHT22;9146;48.074;11.968;2022-09-09T11:25:16;15.90;99.90
18043;DHT22;9146;48.074;11.968;2022-09-09T11:28:02;15.90;99.90
18043;DHT22;9146;48.074;11.968;2022-09-09T11:30:42;15.90;99.90
18043;DHT22;9146;48.074;11.968;2022-09-09T11:33:39;15.90;99.90
18043;DHT22;9146;48.074;11.968;2022-09-09T11:36:22;16.10;99.90
18043;DHT22;9146;48.074;11.968;2022-09-09T11:38:53;16.30;99.90
18043;DHT22;9146;48.074;11.968;2022-09-09T11:41:34;16.50;99.90
18043;DHT22;9146;48.074;11.968;2022-09-09T11:44:10;16.60;99.90
18043;DHT22;9146;48.074;11.968;2022-09-09T11:46:39;16.70;99.90
18043;DHT22;9146;48.074;11.968;2022-09-09T11:49:26;16.70;99.90
18043;DHT22;9146;48.074;11.968;2022-09-09T11:51:53;16.80;99.90
18043;DHT22;9146;48.074;11.968;2022-09-09T11:54:31;16.80;99.90
18043;DHT22;9146;48.074;11.968;2022-09-09T11:56:59;16.90;99.90
18043;DHT22;9146;48.074;11.968;2022-09-09T11:59:29;16.90;99.90
18043;DHT22;9146;48.074;11.968;2022-09-09T12:01:57;16.80;99.90
18043;DHT22;9146;48.074;11.968;2022-09-09T12:04:34;16.80;99.90
18043;DHT22;9146;48.074;11.968;2022-09-09T12:07:04;16.90;99.90
18043;DHT22;9146;48.074;11.968;2022-09-09T12:09:48;16.90;99.90
18043;DHT22;9146;48.074;11.968;2022-09-09T12:12:26;17.10;99.90
18043;DHT22;9146;48.074;11.968;2022-09-09T12:15:21;17.30;99.90
18043;DHT22;9146;48.074;11.968;2022-09-09T12:17:50;17.60;99.90
18043;DHT22;9146;48.074;11.968;2022-09-09T12:20:20;17.70;99.90
18043;DHT22;9146;48.074;11.968;2022-09-09T12:22:58;17.90;99.90
18043;DHT22;9146;48.074;11.968;2022-09-09T12:25:33;18.00;99.90
18043;DHT22;9146;48.074;11.968;2022-09-09T12:28:09;18.10;99.90
18043;DHT22;9146;48.074;11.968;2022-09-09T12:30:46;18.20;99.90
18043;DHT22;9146;48.074;11.968;2022-09-09T12:33:17;18.20;99.90
18043;DHT22;9146;48.074;11.968;2022-09-09T12:35:51;18.30;99.90
18043;DHT22;9146;48.074;11.968;2022-09-09T12:38:25;18.30;99.90
18043;DHT22;9146;48.074;11.968;2022-09-09T12:40:56;18.30;99.90
18043;DHT22;9146;48.074;11.968;2022-09-09T12:43:25;18.30;99.90
18043;DHT22;9146;48.074;11.968;2022-09-09T12:45:57;18.30;99.90
18043;DHT22;9146;48.074;11.968;2022-09-09T12:48:31;18.30;99.90
18043;DHT22;9146;48.074;11.968;2022-09-09T12:50:59;18.20;99.90
18043;DHT22;9146;48.074;11.968;2022-09-09T12:53:29;18.20;99.90
18043;DHT22;9146;48.074;11.968;2022-09-09T12:55:58;18.30;99.90
18043;DHT22;9146;48.074;11.968;2022-09-09T12:58:26;18.40;99.90
18043;DHT22;9146;48.074;11.968;2022-09-09T13:01:00;18.40;99.90
18043;DHT22;9146;48.074;11.968;2022-09-09T13:03:31;18.50;99.90
18043;DHT22;9146;48.074;11.968;2022-09-09T13:06:10;18.50;99.90
18043;DHT22;9146;48.074;11.968;2022-09-09T13:08:37;18.50;99.90
18043;DHT22;9146;48.074;11.968;2022-09-09T13:11:07;18.40;99.90
18043;DHT22;9146;48.074;11.968;2022-09-09T13:13:36;18.30;99.90
18043;DHT22;9146;48.074;11.968;2022-09-09T13:16:06;18.30;99.90
18043;DHT22;9146;48.074;11.968;2022-09-09T13:18:43;18.40;99.90
18043;DHT22;9146;48.074;11.968;2022-09-09T13:21:10;18.50;99.90
18043;DHT22;9146;48.074;11.968;2022-09-09T13:23:37;18.60;99.90
18043;DHT22;9146;48.074;11.968;2022-09-09T13:26:06;18.70;99.90
18043;DHT22;9146;48.074;11.968;2022-09-09T13:28:47;18.70;99.90
18043;DHT22;9146;48.074;11.968;2022-09-09T13:31:22;18.70;99.90
18043;DHT22;9146;48.074;11.968;2022-09-09T13:33:49;18.70;99.90
18043;DHT22;9146;48.074;11.968;2022-09-09T13:36:28;18.70;99.90
18043;DHT22;9146;48.074;11.968;2022-09-09T13:38:57;18.70;99.90
18043;DHT22;9146;48.074;11.968;2022-09-09T13:41:29;18.70;99.90
18043;DHT22;9146;48.074;11.968;2022-09-09T13:43:58;18.70;99.90
18043;DHT22;9146;48.074;11.968;2022-09-09T13:46:31;18.50;99.90
18043;DHT22;9146;48.074;11.968;2022-09-09T13:49:00;18.50;99.90
18043;DHT22;9146;48.074;11.968;2022-09-09T13:51:34;18.40;99.90
18043;DHT22;9146;48.074;11.968;2022-09-09T13:54:03;18.40;99.90
18043;DHT22;9146;48.074;11.968;2022-09-09T13:56:31;18.40;99.90
18043;DHT22;9146;48.074;11.968;2022-09-09T13:58:58;18.30;99.90
18043;DHT22;9146;48.074;11.968;2022-09-09T14:01:27;18.20;99.90
18043;DHT22;9146;48.074;11.968;2022-09-09T14:03:54;18.30;99.90
18043;DHT22;9146;48.074;11.968;2022-09-09T14:06:21;18.10;99.90
18043;DHT22;9146;48.074;11.968;2022-09-09T14:08:49;18.00;99.90
18043;DHT22;9146;48.074;11.968;2022-09-09T14:11:18;18.00;99.90
18043;DHT22;9146;48.074;11.968;2022-09-09T14:13:45;17.90;99.90
18043;DHT22;9146;48.074;11.968;2022-09-09T14:16:12;17.90;99.90
18043;DHT22;9146;48.074;11.968;2022-09-09T14:18:40;17.90;99.90
18043;DHT22;9146;48.074;11.968;2022-09-09T14:21:07;17.90;99.90
18043;DHT22;9146;48.074;11.968;2022-09-09T14:23:34;17.80;99.90
18043;DHT22;9146;48.074;11.968;2022-09-09T14:26:01;17.80;99.90
18043;DHT22;9146;48.074;11.968;2022-09-09T14:28:28;17.80;99.90
18043;DHT22;9146;48.074;11.968;2022-09-09T14:30:59;17.80;99.90
18043;DHT22;9146;48.074;11.968;2022-09-09T14:33:26;17.70;99.90
18043;DHT22;9146;48.074;11.968;2022-09-09T14:35:57;17.60;99.90
18043;DHT22;9146;48.074;11.968;2022-09-09T14:38:25;17.60;99.90
18043;DHT22;9146;48.074;11.968;2022-09-09T14:40:55;17.60;99.90
18043;DHT22;9146;48.074;11.968;2022-09-09T14:43:22;17.60;99.90
18043;DHT22;9146;48.074;11.968;2022-09-09T14:45:49;17.60;99.90
18043;DHT22;9146;48.074;11.968;2022-09-09T14:48:17;17.60;99.90
18043;DHT22;9146;48.074;11.968;2022-09-09T14:50:44;17.60;99.90
18043;DHT22;9146;48.074;11.968;2022-09-09T14:53:13;17.60;99.90
18043;DHT22;9146;48.074;11.968;2022-09-09T14:55:39;17.60;99.90
18043;DHT22;9146;48.074;11.968;2022-09-09T14:58:06;17.60;99.90
18043;DHT22;9146;48.074;11.968;2022-09-09T15:00:33;17.60;99.90
18043;DHT22;9146;48.074;11.968;2022-09-09T15:03:01;17.70;99.90
18043;DHT22;9146;48.074;11.968;2022-09-09T15:05:28;17.70;99.90
18043;DHT22;9146;48.074;11.968;2022-09-09T15:07:56;17.70;99.90
18043;DHT22;9146;48.074;11.968;2022-09-09T15:10:25;17.70;99.90
18043;DHT22;9146;48.074;11.968;2022-09-09T15:12:52;17.70;99.90
18043;DHT22;9146;48.074;11.968;2022-09-09T15:15:19;17.70;99.90
18043;DHT22;9146;48.074;11.968;2022-09-09T15:17:46;17.60;99.90
18043;DHT22;9146;48.074;11.968;2022-09-09T15:20:13;17.60;99.90
18043;DHT22;9146;48.074;11.968;2022-09-09T15:22:42;17.60;99.90
18043;DHT22;9146;48.074;11.968;2022-09-09T15:25:09;17.50;99.90
18043;DHT22;9146;48.074;11.968;2022-09-09T15:27:39;17.40;99.90
18043;DHT22;9146;48.074;11.968;2022-09-09T15:30:07;17.40;99.90
18043;DHT22;9146;48.074;11.968;2022-09-09T15:32:34;17.30;99.90
18043;DHT22;9146;48.074;11.968;2022-09-09T15:35:01;17.30;99.90
18043;DHT22;9146;48.074;11.968;2022-09-09T15:37:28;17.20;99.90
18043;DHT22;9146;48.074;11.968;2022-09-09T15:39:55;17.20;99.90
18043;DHT22;9146;48.074;11.968;2022-09-09T15:42:24;17.20;99.90
18043;DHT22;9146;48.074;11.968;2022-09-09T15:44:52;17.10;99.90
18043;DHT22;9146;48.074;11.968;2022-09-09T15:47:19;17.10;99.90
18043;DHT22;9146;48.074;11.968;2022-09-09T15:49:47;17.10;99.90
18043;DHT22;9146;48.074;11.968;2022-09-09T15:52:14;17.10;99.90
18043;DHT22;9146;48.074;11.968;2022-09-09T15:54:41;17.00;99.90